Time;durP1;ratioP1;P1;durP2;ratioP2;P2;SDS_P1;SDS_P2;PMS_P1;PMS_P2;Temp;Humidity;BMP_temperature;BMP_pressure;BME280_temperature;BME280_humidity;BME280_pressure;Samples;Min_cycle;Max_cycle;Signal;HPM_P1;HPM_P2
2021/04/15 00:00:25;;;;;;;;;19.00;19.00;;;;;10.69;73.27;101090.09;4896132;29;11679;-78
2021/04/15 00:03:26;;;;;;;;;21.75;21.00;;;;;10.80;73.48;101099.72;4884986;29;11380;-78
2021/04/15 00:06:19;;;;;;;;;22.25;22.25;;;;;10.93;73.21;101108.22;4874292;29;11260;-77
2021/04/15 00:09:22;;;;;;;;;21.00;20.00;;;;;10.74;74.42;101095.50;4898779;29;11317;-77
2021/04/15 00:11:50;;;;;;;;;21.25;21.25;;;;;10.89;73.81;101097.00;4903349;29;11665;-77
2021/04/15 00:14:46;;;;;;;;;18.50;18.50;;;;;11.03;73.41;101100.41;4902782;29;11656;-77
2021/04/15 00:17:13;;;;;;;;;15.50;15.50;;;;;10.98;73.76;101102.53;4903615;29;11182;-77
2021/04/15 00:20:10;;;;;;;;;16.00;16.00;;;;;11.14;73.53;101100.94;4905424;29;11227;-77
2021/04/15 00:23:05;;;;;;;;;16.25;14.25;;;;;11.24;72.76;101106.13;4891832;29;11230;-77
2021/04/15 00:26:03;;;;;;;;;19.00;18.50;;;;;11.28;72.87;101107.13;4905385;29;11187;-77
2021/04/15 00:28:59;;;;;;;;;19.25;19.00;;;;;11.28;72.93;101104.34;4905842;29;11242;-77
2021/04/15 00:31:54;;;;;;;;;19.25;19.00;;;;;11.01;74.34;101097.16;4906658;29;11818;-77
2021/04/15 00:34:22;;;;;;;;;16.00;16.00;;;;;11.11;74.09;101098.78;4904195;29;12042;-77
2021/04/15 00:37:18;;;;;;;;;15.75;15.75;;;;;11.23;73.63;101103.69;4904726;29;10971;-77
2021/04/15 00:40:17;;;;;;;;;18.00;18.00;;;;;11.29;73.50;101099.63;4905299;29;11110;-78
2021/04/15 00:43:14;;;;;;;;;18.75;17.25;;;;;11.21;73.79;101095.72;4906606;29;11270;-77
2021/04/15 00:46:16;;;;;;;;;18.00;16.50;;;;;11.33;73.26;101101.41;4908148;29;11127;-77
2021/04/15 00:49:23;;;;;;;;;21.50;19.75;;;;;11.38;73.16;101101.25;4882836;29;11064;-77
2021/04/15 00:52:21;;;;;;;;;21.00;21.00;;;;;11.44;72.93;101101.09;4893348;29;10895;-76
2021/04/15 00:55:27;;;;;;;;;13.75;13.75;;;;;11.47;73.03;101104.00;4884699;29;11181;-76
2021/04/15 00:58:23;;;;;;;;;15.25;15.25;;;;;11.17;74.46;101096.69;4888989;29;10991;-77
2021/04/15 01:01:05;;;;;;;;;18.50;18.50;;;;;11.32;74.57;101097.00;4868943;29;11297;-76
2021/04/15 01:03:37;;;;;;;;;11.00;11.00;;;;;11.34;74.40;101097.50;4902444;29;10948;-77
2021/04/15 01:06:33;;;;;;;;;16.25;16.25;;;;;11.35;74.58;101101.91;4890858;29;10901;-78
2021/04/15 01:09:28;;;;;;;;;16.75;16.75;;;;;11.56;74.08;101095.69;4903368;29;10993;-77
2021/04/15 01:12:50;;;;;;;;;14.25;14.25;;;;;11.50;74.50;101088.69;4904932;29;11128;-76
2021/04/15 01:16:03;;;;;;;;;15.75;15.50;;;;;11.58;74.34;101091.47;4889107;29;10970;-77
2021/04/15 01:19:20;;;;;;;;;19.50;18.25;;;;;11.56;75.02;101084.63;4902022;29;11148;-77
2021/04/15 01:22:18;;;;;;;;;15.75;15.00;;;;;11.54;75.61;101087.72;4888891;29;11221;-77
2021/04/15 01:24:57;;;;;;;;;18.75;18.50;;;;;11.58;75.60;101079.59;4886724;29;11274;-77
2021/04/15 01:27:46;;;;;;;;;17.00;17.00;;;;;11.59;75.75;101078.44;4905646;29;10994;-78
2021/04/15 01:30:49;;;;;;;;;18.25;18.25;;;;;11.73;75.67;101087.38;4907461;29;10939;-78
2021/04/15 01:34:11;;;;;;;;;18.25;17.00;;;;;11.56;76.85;101079.06;4912536;29;10967;-78
2021/04/15 01:37:17;;;;;;;;;17.25;16.00;;;;;11.65;76.88;101083.47;4912092;29;11128;-78
2021/04/15 01:40:29;;;;;;;;;19.25;17.75;;;;;11.66;77.04;101079.56;4910645;29;10665;-78
2021/04/15 01:43:37;;;;;;;;;19.00;18.50;;;;;11.76;76.87;101069.28;4903166;29;10822;-77
2021/04/15 01:46:36;;;;;;;;;18.00;18.00;;;;;11.65;76.99;101071.56;4892186;29;10795;-77
2021/04/15 01:49:38;;;;;;;;;15.25;15.25;;;;;11.67;77.05;101072.88;4895419;29;10947;-77
2021/04/15 01:52:39;;;;;;;;;16.50;16.50;;;;;11.79;76.67;101072.19;4883274;29;11698;-77
2021/04/15 01:55:42;;;;;;;;;18.75;18.75;;;;;11.69;76.90;101067.00;4884829;29;11088;-77
2021/04/15 01:58:54;;;;;;;;;16.00;15.75;;;;;11.77;76.97;101065.34;4883325;29;11064;-77
2021/04/15 02:01:24;;;;;;;;;16.75;16.75;;;;;11.85;76.45;101070.09;4886205;29;10890;-77
2021/04/15 02:04:24;;;;;;;;;16.25;16.25;;;;;11.86;76.53;101066.97;4904146;29;11051;-76
2021/04/15 02:07:23;;;;;;;;;18.50;18.50;;;;;11.81;76.70;101069.09;4901639;29;10914;-76
2021/04/15 02:10:20;;;;;;;;;22.75;19.75;;;;;11.72;77.09;101068.28;4902994;29;10816;-78
2021/04/15 02:13:18;;;;;;;;;11.00;11.00;;;;;11.90;76.65;101072.69;4901819;29;11020;-77
2021/04/15 02:16:22;;;;;;;;;16.75;16.75;;;;;11.72;76.98;101066.31;4891281;29;10887;-77
2021/04/15 02:19:27;;;;;;;;;17.25;17.25;;;;;11.89;76.33;101065.53;4897690;29;10958;-77
2021/04/15 02:22:05;;;;;;;;;16.00;16.00;;;;;11.84;76.70;101065.69;4895445;29;10945;-78
2021/04/15 02:25:08;;;;;;;;;15.75;15.75;;;;;11.95;76.20;101070.53;4878042;29;10984;-78
2021/04/15 02:28:10;;;;;;;;;21.25;21.25;;;;;11.92;76.47;101065.66;4884570;29;10899;-77
2021/04/15 02:31:11;;;;;;;;;17.00;17.00;;;;;11.94;76.53;101063.38;4873234;29;10778;-76
2021/04/15 02:34:11;;;;;;;;;21.00;21.00;;;;;12.02;76.19;101064.47;4884730;29;10820;-78
2021/04/15 02:37:26;;;;;;;;;19.50;19.50;;;;;11.95;76.71;101053.91;4890707;29;11082;-79
2021/04/15 02:40:51;;;;;;;;;17.50;17.25;;;;;11.83;77.86;101058.53;4888431;29;10880;-78
2021/04/15 02:44:01;;;;;;;;;16.75;16.75;;;;;11.87;78.06;101057.53;4881592;29;11076;-76
2021/04/15 02:47:11;;;;;;;;;18.75;18.75;;;;;11.94;77.83;101059.78;4895568;29;11775;-77
2021/04/15 02:50:10;;;;;;;;;11.75;11.75;;;;;11.92;77.70;101054.59;4902845;29;10758;-78
2021/04/15 02:53:37;;;;;;;;;18.75;18.75;;;;;11.82;78.26;101056.91;4902026;29;10795;-77
2021/04/15 02:56:53;;;;;;;;;15.25;15.25;;;;;11.77;78.50;101062.59;4903272;29;11079;-78
2021/04/15 02:59:58;;;;;;;;;20.25;19.00;;;;;11.86;77.84;101064.22;4902494;29;10950;-78
2021/04/15 03:03:02;;;;;;;;;18.00;16.75;;;;;11.90;77.61;101056.06;4889170;29;10978;-77
2021/04/15 03:06:03;;;;;;;;;21.00;21.00;;;;;11.89;77.79;101060.78;4904046;29;10987;-77
2021/04/15 03:09:05;;;;;;;;;19.25;19.25;;;;;11.94;77.74;101060.59;4896186;29;11068;-77
2021/04/15 03:11:47;;;;;;;;;26.00;21.75;;;;;11.94;77.40;101055.06;4888350;29;10980;-77
2021/04/15 03:15:00;;;;;;;;;17.75;17.75;;;;;11.98;77.47;101049.69;4878612;29;11007;-77
2021/04/15 03:18:06;;;;;;;;;26.00;23.25;;;;;12.00;77.68;101054.88;4865708;29;11786;-78
2021/04/15 03:21:12;;;;;;;;;20.00;19.25;;;;;11.96;77.88;101060.25;4878756;29;11099;-78
2021/04/15 03:24:15;;;;;;;;;18.00;18.00;;;;;11.94;78.03;101063.38;4890255;29;11074;-78
2021/04/15 03:27:33;;;;;;;;;21.75;20.75;;;;;12.03;77.60;101065.28;4896628;29;11854;-78
2021/04/15 03:30:38;;;;;;;;;17.25;16.50;;;;;12.10;77.46;101068.38;4901130;29;10980;-77
2021/04/15 03:33:52;;;;;;;;;18.50;18.50;;;;;12.16;77.33;101075.38;4899456;29;10810;-77
2021/04/15 03:36:52;;;;;;;;;16.75;16.75;;;;;12.03;77.85;101070.84;4896953;29;10829;-78
2021/04/15 03:39:51;;;;;;;;;16.75;16.75;;;;;12.07;77.75;101063.50;4896859;29;10970;-77
2021/04/15 03:42:55;;;;;;;;;17.25;17.25;;;;;12.10;77.80;101071.16;4883974;29;11037;-78
2021/04/15 03:46:14;;;;;;;;;15.50;15.50;;;;;12.16;77.73;101069.81;4877757;29;10814;-78
2021/04/15 03:49:21;;;;;;;;;16.75;16.75;;;;;12.19;77.29;101066.38;4892717;29;11546;-78
2021/04/15 03:52:22;;;;;;;;;16.00;16.00;;;;;12.20;77.60;101079.94;4898097;29;10937;-77
2021/04/15 03:54:55;;;;;;;;;17.00;17.00;;;;;12.09;78.12;101077.84;4900884;29;10820;-78
2021/04/15 03:57:24;;;;;;;;;21.25;21.25;;;;;12.19;77.70;101083.00;4900305;29;10851;-78
2021/04/15 03:59:57;;;;;;;;;16.75;16.75;;;;;12.16;78.10;101086.47;4901581;29;11006;-78
2021/04/15 04:02:46;;;;;;;;;17.25;17.25;;;;;12.10;78.78;101082.22;4900657;29;11024;-77
2021/04/15 04:05:49;;;;;;;;;19.50;19.25;;;;;12.11;78.91;101090.22;4899142;29;10978;-76
2021/04/15 04:08:31;;;;;;;;;19.50;19.50;;;;;12.18;78.67;101089.72;4884572;29;10932;-76
2021/04/15 04:11:33;;;;;;;;;19.50;19.50;;;;;12.08;79.05;101087.31;4887944;29;10951;-77
2021/04/15 04:14:40;;;;;;;;;18.25;18.25;;;;;12.08;79.81;101095.63;4900642;29;10651;-77
2021/04/15 04:17:46;;;;;;;;;16.25;16.25;;;;;12.10;79.89;101093.31;4900396;29;11000;-77
2021/04/15 04:20:42;;;;;;;;;21.00;19.75;;;;;12.08;79.60;101103.94;4899643;29;10724;-76
2021/04/15 04:23:46;;;;;;;;;16.75;16.75;;;;;12.14;79.62;101102.63;4899275;29;11003;-75
2021/04/15 04:26:50;;;;;;;;;15.25;15.25;;;;;12.11;80.01;101098.53;4898546;29;10991;-75
2021/04/15 04:30:07;;;;;;;;;16.25;16.25;;;;;12.08;80.48;101106.72;4899052;29;11039;-76
2021/04/15 04:33:06;;;;;;;;;15.00;15.00;;;;;12.14;80.33;101095.13;4886594;29;10659;-76
2021/04/15 04:36:03;;;;;;;;;17.00;17.00;;;;;12.11;80.66;101097.72;4899195;29;10725;-77
2021/04/15 04:38:59;;;;;;;;;18.00;16.25;;;;;12.14;80.82;101097.06;4885408;29;10836;-76
2021/04/15 04:41:57;;;;;;;;;14.25;14.25;;;;;12.23;80.38;101097.84;4892355;29;10906;-75
2021/04/15 04:44:57;;;;;;;;;15.25;15.25;;;;;12.23;80.57;101097.84;4898925;29;10448;-75
2021/04/15 04:47:54;;;;;;;;;18.50;18.50;;;;;12.23;80.47;101106.97;4899701;29;10724;-75
2021/04/15 04:51:04;;;;;;;;;16.00;15.50;;;;;12.22;81.05;101101.78;4899109;29;10926;-74
2021/04/15 04:54:04;;;;;;;;;14.25;14.25;;;;;12.34;80.42;101104.63;4894941;29;10934;-75
2021/04/15 04:57:12;;;;;;;;;16.00;16.00;;;;;12.07;80.69;101103.13;4897717;29;10646;-76
2021/04/15 05:00:06;;;;;;;;;12.25;12.25;;;;;12.35;79.74;101105.50;4899353;29;10676;-76
2021/04/15 05:03:07;;;;;;;;;15.25;15.25;;;;;12.34;80.65;101099.09;4898518;29;10728;-75
2021/04/15 05:06:06;;;;;;;;;12.75;12.75;;;;;12.37;80.29;101106.78;4899058;29;10742;-76
2021/04/15 05:09:07;;;;;;;;;15.75;14.50;;;;;12.50;80.41;101102.97;4897912;29;10736;-75
2021/04/15 05:12:14;;;;;;;;;10.75;10.75;;;;;12.62;79.80;101098.66;4897263;29;10639;-75
2021/04/15 05:14:57;;;;;;;;;12.75;12.75;;;;;12.63;79.58;101101.09;4895040;29;11374;-74
2021/04/15 05:17:53;;;;;;;;;14.25;14.25;;;;;12.58;79.47;101112.41;4882751;29;10484;-74
2021/04/15 05:20:56;;;;;;;;;12.50;12.50;;;;;12.62;79.17;101107.78;4896476;29;10469;-76
2021/04/15 05:23:56;;;;;;;;;14.25;14.00;;;;;12.58;78.59;101106.84;4895556;29;10586;-76
2021/04/15 05:27:01;;;;;;;;;14.00;13.00;;;;;12.63;78.20;101112.19;4897929;29;10663;-75
2021/04/15 05:30:13;;;;;;;;;11.25;9.50;;;;;12.56;78.21;101106.34;4898414;29;10511;-75
2021/04/15 05:33:17;;;;;;;;;12.00;11.75;;;;;12.52;78.41;101109.00;4898563;29;10471;-75
2021/04/15 05:36:09;;;;;;;;;16.50;16.50;;;;;12.52;78.32;101113.72;4881657;29;10694;-76
2021/04/15 05:39:16;;;;;;;;;17.75;15.25;;;;;12.61;77.83;101106.16;4877501;29;10567;-76
2021/04/15 05:42:39;;;;;;;;;15.00;15.00;;;;;12.47;78.45;101097.25;4882943;29;10693;-76
2021/04/15 05:45:24;;;;;;;;;13.75;13.75;;;;;12.59;78.02;101097.38;4896871;29;10606;-75
2021/04/15 05:48:21;;;;;;;;;15.50;15.25;;;;;12.52;77.88;101099.84;4881378;29;10648;-75
2021/04/15 05:50:52;;;;;;;;;15.25;15.25;;;;;12.68;77.70;101100.91;4895319;29;10540;-76
2021/04/15 05:53:52;;;;;;;;;16.25;16.25;;;;;12.67;77.64;101098.47;4883855;29;10476;-76
2021/04/15 05:57:00;;;;;;;;;17.50;17.50;;;;;12.68;77.68;101111.19;4895478;29;10554;-75
2021/04/15 06:00:07;;;;;;;;;16.25;15.25;;;;;12.72;77.70;101106.59;4896922;29;10796;-74
2021/04/15 06:02:54;;;;;;;;;15.00;15.00;;;;;12.77;77.11;101107.22;4881405;29;10693;-75
2021/04/15 06:06:04;;;;;;;;;15.75;15.75;;;;;12.69;77.22;101115.59;4895986;29;10563;-75
2021/04/15 06:09:01;;;;;;;;;14.50;14.50;;;;;12.79;76.84;101109.66;4892752;29;10565;-74
2021/04/15 06:11:35;;;;;;;;;19.00;17.25;;;;;12.77;76.90;101114.72;4882138;29;10552;-76
2021/04/15 06:14:31;;;;;;;;;13.25;13.00;;;;;12.83;76.66;101110.63;4881879;29;10760;-75
2021/04/15 06:17:08;;;;;;;;;13.25;13.25;;;;;12.73;77.17;101113.78;4880616;29;10410;-76
2021/04/15 06:19:43;;;;;;;;;14.25;12.50;;;;;12.84;76.59;101116.97;4896329;29;10663;-76
2021/04/15 06:22:19;;;;;;;;;12.50;12.50;;;;;12.74;76.34;101105.13;4874833;29;10579;-75
2021/04/15 06:24:55;;;;;;;;;11.75;11.75;;;;;12.63;76.54;101106.63;4881197;29;10557;-75
2021/04/15 06:27:48;;;;;;;;;10.25;10.25;;;;;12.78;76.18;101110.78;4881596;29;10543;-75
2021/04/15 06:30:57;;;;;;;;;12.00;12.00;;;;;12.77;76.02;101112.75;4891033;29;10581;-76
2021/04/15 06:33:27;;;;;;;;;14.25;14.25;;;;;12.90;75.97;101115.63;4895491;29;10350;-74
2021/04/15 06:35:58;;;;;;;;;13.75;13.75;;;;;12.89;75.68;101114.81;4897616;29;10228;-75
2021/04/15 06:38:57;;;;;;;;;15.25;13.00;;;;;12.88;75.70;101117.91;4895944;29;10465;-75
2021/04/15 06:41:44;;;;;;;;;10.50;10.50;;;;;12.88;75.65;101118.75;4897660;29;10328;-76
2021/04/15 06:44:43;;;;;;;;;11.50;11.50;;;;;12.83;75.72;101126.47;4897213;29;10413;-74
2021/04/15 06:47:16;;;;;;;;;11.50;11.50;;;;;12.78;75.86;101117.16;4896336;29;10316;-75
2021/04/15 06:49:43;;;;;;;;;15.75;15.50;;;;;12.85;75.69;101133.28;4896029;29;10088;-75
2021/04/15 06:52:26;;;;;;;;;16.00;16.00;;;;;12.75;76.35;101125.34;4881279;29;10431;-76
2021/04/15 06:55:31;;;;;;;;;8.00;8.00;;;;;12.85;76.51;101118.59;4865033;29;10437;-76
2021/04/15 06:58:27;;;;;;;;;9.00;9.00;;;;;12.72;77.68;101118.50;4894406;29;10137;-76
2021/04/15 07:01:29;;;;;;;;;9.50;9.50;;;;;12.76;78.23;101121.44;4881538;29;10383;-73
2021/04/15 07:04:02;;;;;;;;;10.00;10.00;;;;;12.91;78.59;101122.81;4880895;29;10368;-74
2021/04/15 07:07:13;;;;;;;;;8.25;8.25;;;;;12.86;79.44;101111.91;4896357;29;10279;-74
2021/04/15 07:10:13;;;;;;;;;12.75;12.75;;;;;12.89;79.20;101123.16;4878850;29;10401;-74
2021/04/15 07:13:36;;;;;;;;;17.25;17.25;;;;;12.88;80.27;101118.75;4889867;29;10370;-75
2021/04/15 07:16:29;;;;;;;;;19.25;19.25;;;;;12.94;79.49;101114.63;4880832;29;10575;-74
2021/04/15 07:19:24;;;;;;;;;16.00;16.00;;;;;12.93;78.95;101113.00;4877190;29;10675;-77
2021/04/15 07:22:06;;;;;;;;;15.25;15.25;;;;;13.10;79.14;101114.84;4891919;29;10757;-74
2021/04/15 07:25:18;;;;;;;;;13.50;13.50;;;;;12.95;78.51;101118.19;4897191;29;10330;-75
2021/04/15 07:28:42;;;;;;;;;11.25;11.25;;;;;12.98;78.53;101110.03;4813585;29;10415;-75
2021/04/15 07:31:39;;;;;;;;;9.25;9.25;;;;;12.92;79.39;101113.34;4815625;29;10148;-74
2021/04/15 07:34:25;;;;;;;;;13.25;13.25;;;;;13.08;79.51;101122.69;4743859;29;10365;-74
2021/04/15 07:37:11;;;;;;;;;14.25;14.25;;;;;13.14;78.15;101126.91;4878237;29;10427;-74
2021/04/15 07:40:11;;;;;;;;;14.00;14.00;;;;;13.01;78.02;101114.09;4888583;29;10427;-75
2021/04/15 07:43:10;;;;;;;;;16.75;16.75;;;;;13.05;78.23;101118.63;4900615;29;10244;-74
2021/04/15 07:46:38;;;;;;;;;16.50;16.50;;;;;13.03;78.89;101120.09;4887315;29;10521;-75
2021/04/15 07:49:31;;;;;;;;;13.50;13.50;;;;;13.08;79.26;101112.41;4884718;29;10392;-74
2021/04/15 07:52:36;;;;;;;;;12.50;12.50;;;;;13.17;79.28;101122.63;4900370;29;10140;-75
2021/04/15 07:55:21;;;;;;;;;12.25;12.25;;;;;13.09;79.34;101125.13;4900896;29;10334;-76
2021/04/15 07:58:26;;;;;;;;;16.00;15.50;;;;;13.08;79.37;101120.72;4900883;29;10328;-75
2021/04/15 08:01:39;;;;;;;;;13.25;13.25;;;;;13.06;79.58;101120.25;4900322;29;10436;-75
2021/04/15 08:04:25;;;;;;;;;12.00;12.00;;;;;13.06;79.77;101111.94;4900694;29;10120;-76
2021/04/15 08:07:44;;;;;;;;;13.00;13.00;;;;;12.97;79.68;101111.19;4899198;29;10336;-75
2021/04/15 08:11:08;;;;;;;;;14.75;14.75;;;;;13.02;79.66;101116.53;4900032;29;10179;-76
2021/04/15 08:14:37;;;;;;;;;15.50;15.50;;;;;13.11;79.13;101119.22;4899123;29;10160;-76
2021/04/15 08:17:10;;;;;;;;;18.00;18.00;;;;;13.02;79.63;101113.75;4899327;29;10394;-77
2021/04/15 08:20:28;;;;;;;;;15.00;15.00;;;;;13.11;79.83;101115.66;4899288;29;10116;-76
2021/04/15 08:23:48;;;;;;;;;16.50;15.50;;;;;13.07;79.85;101110.78;4898537;29;10417;-77
2021/04/15 08:26:52;;;;;;;;;16.00;16.00;;;;;13.00;80.21;101107.72;4881254;29;10358;-77
2021/04/15 08:30:12;;;;;;;;;17.50;17.50;;;;;13.02;79.82;101108.19;4880641;29;10923;-77
2021/04/15 08:33:29;;;;;;;;;10.00;10.00;;;;;13.02;79.56;101116.53;4880452;29;10538;-76
2021/04/15 08:37:02;;;;;;;;;17.00;16.25;;;;;13.09;79.04;101110.44;4880487;29;10166;-79
2021/04/15 08:40:32;;;;;;;;;18.00;17.00;;;;;13.07;79.46;101108.00;4858976;29;10278;-75
2021/04/15 08:43:30;;;;;;;;;17.00;16.00;;;;;13.09;79.70;101102.91;4891193;29;10443;-76
2021/04/15 08:46:43;;;;;;;;;16.75;15.25;;;;;13.15;79.31;101103.53;4898907;29;11370;-77
2021/04/15 08:49:14;;;;;;;;;18.75;18.75;;;;;13.18;79.63;101104.81;4897165;29;11231;-77
2021/04/15 08:52:24;;;;;;;;;18.00;17.25;;;;;13.18;80.62;101097.28;4899556;29;10413;-78
2021/04/15 08:55:42;;;;;;;;;15.75;15.75;;;;;13.28;80.19;101088.59;4880440;29;10337;-78
2021/04/15 08:58:27;;;;;;;;;15.25;15.00;;;;;13.28;80.46;101091.38;4897912;29;10424;-78
2021/04/15 09:01:44;;;;;;;;;15.25;15.25;;;;;13.44;80.37;101097.13;4898921;29;10347;-79
2021/04/15 09:05:06;;;;;;;;;22.00;21.00;;;;;13.41;80.10;101091.41;4898805;29;10395;-77
2021/04/15 09:08:16;;;;;;;;;22.25;19.50;;;;;13.23;81.13;101099.09;4880370;29;10525;-77
2021/04/15 09:11:20;;;;;;;;;18.75;18.75;;;;;13.25;80.93;101083.72;4895619;29;10478;-76
2021/04/15 19:16:04;;;;;;;;;19.75;19.75;;;;;10.59;81.87;101123.59;5102226;27;13372;-70
2021/04/15 19:19:00;;;;;;;;;15.75;15.75;;;;;10.54;81.97;101124.56;5085701;28;12345;-70
2021/04/15 19:21:56;;;;;;;;;14.50;14.50;;;;;10.57;82.34;101125.84;5089676;28;10938;-70
2021/04/15 19:24:43;;;;;;;;;16.75;16.75;;;;;10.65;82.95;101125.06;5089927;28;12429;-72
2021/04/15 19:27:14;;;;;;;;;21.50;21.50;;;;;10.54;83.11;101120.97;5082454;28;11152;-69
2021/04/15 19:30:10;;;;;;;;;21.00;19.75;;;;;10.34;83.91;101113.25;5069481;28;11535;-70
2021/04/15 19:33:06;;;;;;;;;14.00;14.00;;;;;10.39;83.65;101119.47;5069386;28;12353;-72
2021/04/15 19:36:03;;;;;;;;;18.50;18.50;;;;;10.46;83.54;101121.75;5069519;28;11183;-70
2021/04/15 19:39:01;;;;;;;;;20.00;20.00;;;;;10.38;83.68;101120.59;5069156;28;11502;-71
2021/04/15 19:41:28;;;;;;;;;19.75;19.75;;;;;10.40;83.77;101114.75;5089188;28;11584;-71
2021/04/15 19:44:25;;;;;;;;;19.50;19.50;;;;;10.41;83.81;101122.72;5073444;28;11543;-70
2021/04/15 19:47:20;;;;;;;;;18.75;18.75;;;;;10.44;83.53;101110.22;5069346;28;11676;-70
2021/04/15 19:50:21;;;;;;;;;17.75;17.75;;;;;10.34;84.10;101113.25;5069470;28;11571;-71
2021/04/15 19:53:20;;;;;;;;;16.25;14.75;;;;;10.25;84.04;101110.44;5083158;28;11287;-70
2021/04/15 19:55:49;;;;;;;;;20.75;20.75;;;;;10.11;84.24;101104.97;5089349;28;11278;-71
2021/04/15 19:58:25;;;;;;;;;19.50;19.50;;;;;10.05;85.47;101106.28;5089627;28;11596;-71
2021/04/15 20:01:27;;;;;;;;;18.00;18.00;;;;;10.10;85.71;101108.88;5087349;28;11512;-71
2021/04/15 20:04:23;;;;;;;;;17.50;17.50;;;;;10.08;85.32;101113.09;5068855;28;11224;-72
2021/04/15 20:07:19;;;;;;;;;20.25;19.00;;;;;10.14;85.87;101117.38;5080158;28;11406;-71
2021/04/15 20:10:22;;;;;;;;;18.75;18.75;;;;;10.22;85.44;101109.16;5069379;28;11491;-72
2021/04/15 20:13:17;;;;;;;;;16.50;16.25;;;;;10.26;85.19;101107.34;5068752;28;11545;-72
2021/04/15 20:15:56;;;;;;;;;19.50;18.50;;;;;10.25;85.46;101113.22;5067894;28;11335;-71
2021/04/15 20:18:53;;;;;;;;;24.25;24.25;;;;;10.34;84.62;101121.53;5079437;28;11623;-71
2021/04/15 20:21:48;;;;;;;;;24.25;24.25;;;;;10.33;84.16;101112.44;5068667;28;11490;-70
2021/04/15 20:24:45;;;;;;;;;19.75;18.25;;;;;10.25;84.24;101113.22;5068546;28;12267;-71
2021/04/15 20:27:42;;;;;;;;;21.25;21.25;;;;;10.24;83.89;101114.34;5070229;28;11472;-71
2021/04/15 20:30:38;;;;;;;;;21.50;20.75;;;;;10.26;83.61;101114.84;5074056;28;11575;-71
2021/04/15 20:33:35;;;;;;;;;22.00;22.00;;;;;10.24;84.21;101120.69;5056290;28;11637;-71
2021/04/15 20:36:30;;;;;;;;;19.00;19.00;;;;;10.20;84.21;101110.56;5075352;28;11281;-71
2021/04/15 20:38:58;;;;;;;;;18.75;18.75;;;;;10.34;83.55;101124.31;5074543;28;11465;-71
2021/04/15 20:41:54;;;;;;;;;25.50;24.00;;;;;10.37;83.38;101126.44;5073676;28;11612;-71
2021/04/15 20:44:51;;;;;;;;;20.50;20.50;;;;;10.38;83.77;101128.88;5073186;28;11504;-70
2021/04/15 20:47:18;;;;;;;;;18.00;17.00;;;;;10.35;83.12;101126.78;5075131;28;11483;-70
2021/04/15 20:50:18;;;;;;;;;24.75;24.00;;;;;10.32;83.04;101127.38;5074770;28;11700;-69
2021/04/15 20:52:46;;;;;;;;;18.50;18.50;;;;;10.44;82.61;101133.16;5075223;28;11626;-71
2021/04/15 20:55:52;;;;;;;;;18.50;18.50;;;;;10.39;82.73;101127.75;5054539;28;11505;-71
2021/04/15 20:58:48;;;;;;;;;19.25;19.25;;;;;10.24;83.43;101130.94;5073031;28;11476;-71
2021/04/15 21:01:16;;;;;;;;;22.00;22.00;;;;;10.32;83.17;101132.09;5075314;28;11531;-72
2021/04/15 21:03:44;;;;;;;;;26.00;26.00;;;;;10.30;83.31;101132.44;5074861;28;11493;-71
2021/04/15 21:06:34;;;;;;;;;18.50;18.50;;;;;10.27;82.62;101131.13;5054803;28;11531;-70
2021/04/15 21:09:29;;;;;;;;;25.50;25.50;;;;;10.35;82.67;101135.06;5053799;28;11173;-72
2021/04/15 21:12:25;;;;;;;;;25.00;24.50;;;;;10.34;82.80;101147.22;5065555;28;11499;-73
2021/04/15 21:15:22;;;;;;;;;25.50;25.50;;;;;10.30;82.72;101138.78;5069664;28;11672;-71
2021/04/15 21:18:17;;;;;;;;;26.25;26.25;;;;;10.27;83.22;101139.44;5073562;28;11463;-71
2021/04/15 21:21:14;;;;;;;;;24.25;24.25;;;;;10.23;83.34;101143.94;5076840;28;11398;-72
2021/04/15 21:23:42;;;;;;;;;21.00;21.00;;;;;10.38;82.62;101137.19;5094983;28;11492;-72
2021/04/15 21:26:38;;;;;;;;;23.00;23.00;;;;;10.25;82.52;101147.19;5093550;28;11471;-71
2021/04/15 21:29:33;;;;;;;;;26.00;25.25;;;;;10.26;82.61;101143.28;5093474;28;11564;-71
2021/04/15 21:32:29;;;;;;;;;25.75;25.75;;;;;10.08;83.30;101147.06;5093435;28;11506;-72
2021/04/15 21:35:29;;;;;;;;;25.25;25.25;;;;;10.34;82.23;101143.66;5093619;28;11542;-71
2021/04/15 21:38:15;;;;;;;;;23.75;23.25;;;;;10.36;82.35;101144.19;5093287;28;11451;-71
2021/04/15 21:41:11;;;;;;;;;26.00;25.75;;;;;10.27;82.14;101149.63;5093462;28;11473;-72
2021/04/15 21:44:06;;;;;;;;;23.25;23.25;;;;;10.36;81.91;101153.28;5093975;28;11499;-70
2021/04/15 21:47:02;;;;;;;;;25.50;25.00;;;;;10.12;82.58;101155.53;5092420;28;11428;-71
2021/04/15 21:49:57;;;;;;;;;27.25;27.25;;;;;10.36;81.65;101146.94;5093155;28;11461;-71
2021/04/15 21:52:53;;;;;;;;;25.50;24.75;;;;;10.27;81.96;101141.34;5093998;28;11617;-72
2021/04/15 21:55:49;;;;;;;;;24.25;24.25;;;;;10.25;81.95;101146.38;5072810;28;12208;-71
2021/04/15 21:58:32;;;;;;;;;26.00;24.75;;;;;10.29;81.60;101141.88;5074580;28;12184;-72
2021/04/15 22:01:27;;;;;;;;;19.00;18.50;;;;;10.19;81.95;101140.13;5079108;28;11572;-72
2021/04/15 22:04:23;;;;;;;;;23.75;23.75;;;;;10.23;81.88;101138.41;5079977;28;11461;-72
2021/04/15 22:07:19;;;;;;;;;25.50;25.50;;;;;10.34;81.57;101149.19;5078844;28;11566;-72
2021/04/15 22:10:20;;;;;;;;;28.25;28.25;;;;;10.24;81.76;101142.00;5093426;28;11459;-71
2021/04/15 22:13:17;;;;;;;;;20.25;20.25;;;;;10.29;81.78;101144.63;5078794;28;11471;-71
2021/04/15 22:16:17;;;;;;;;;21.50;21.50;;;;;10.19;81.92;101142.91;5079186;28;11424;-72
2021/04/15 22:19:16;;;;;;;;;30.75;30.75;;;;;10.23;82.12;101141.19;5092317;28;11415;-72
2021/04/15 22:22:15;;;;;;;;;18.50;18.00;;;;;10.27;81.81;101139.44;5092553;28;11426;-72
2021/04/15 22:24:46;;;;;;;;;24.00;24.00;;;;;10.33;81.19;101140.06;5075843;28;11587;-71
2021/04/15 22:27:41;;;;;;;;;28.00;28.00;;;;;10.24;81.47;101140.03;5092239;28;11414;-72
2021/04/15 22:30:38;;;;;;;;;21.00;21.00;;;;;10.28;81.34;101135.53;5092491;28;12150;-71
2021/04/15 22:33:34;;;;;;;;;26.75;26.75;;;;;10.29;81.35;101131.63;5091353;28;12208;-72
2021/04/15 22:36:29;;;;;;;;;25.75;25.75;;;;;10.26;81.69;101131.41;5092142;28;12264;-71
2021/04/15 22:39:28;;;;;;;;;25.25;25.25;;;;;10.34;81.54;101138.94;5091998;28;11458;-71
2021/04/15 22:42:23;;;;;;;;;34.00;31.00;;;;;10.36;81.65;101136.69;5078401;28;11454;-71
2021/04/15 22:44:54;;;;;;;;;29.00;27.25;;;;;10.36;81.49;101145.00;5090989;28;11505;-71
2021/04/15 22:47:50;;;;;;;;;26.25;26.25;;;;;10.35;81.35;101132.31;5091540;28;11508;-70
2021/04/15 22:50:49;;;;;;;;;32.00;32.00;;;;;10.14;82.52;101140.28;5091898;28;11586;-70
2021/04/15 22:53:44;;;;;;;;;25.00;25.00;;;;;10.21;81.77;101148.13;5091804;28;11548;-71
2021/04/15 22:56:40;;;;;;;;;29.00;29.00;;;;;10.03;82.32;101142.50;5078246;28;12174;-71
2021/04/15 22:59:35;;;;;;;;;27.00;27.00;;;;;10.27;81.37;101152.41;5091810;28;11519;-70
2021/04/15 23:02:31;;;;;;;;;30.25;30.00;;;;;10.05;81.91;101153.25;5078694;28;11566;-71
2021/04/15 23:05:26;;;;;;;;;30.50;28.75;;;;;10.19;81.46;101156.72;5091968;28;11412;-72
2021/04/15 23:08:22;;;;;;;;;30.50;30.50;;;;;10.21;81.16;101157.25;5078433;28;12176;-72
2021/04/15 23:11:18;;;;;;;;;31.25;30.25;;;;;10.11;81.28;101160.25;5092061;28;11411;-72
2021/04/15 23:14:13;;;;;;;;;31.00;30.00;;;;;10.08;81.35;101162.84;5091652;28;11454;-72
2021/04/15 23:17:09;;;;;;;;;26.75;26.75;;;;;10.12;80.88;101155.53;5077846;28;11462;-72
2021/04/15 23:20:06;;;;;;;;;31.75;31.75;;;;;10.10;80.91;101155.84;5091706;28;11499;-71
2021/04/15 23:22:34;;;;;;;;;25.75;25.75;;;;;10.07;81.06;101161.22;5074799;28;11474;-72
2021/04/15 23:25:30;;;;;;;;;24.75;24.75;;;;;10.19;80.46;101161.44;5086605;28;11454;-72